createdAt,value
2017-07-20T00:00:35.271Z,80.70
2017-07-20T00:03:03.339Z,80.70
2017-07-20T00:05:31.407Z,79.80
2017-07-20T00:07:59.507Z,80.30
2017-07-20T00:10:27.564Z,80.10
2017-07-20T00:12:55.643Z,80.40
2017-07-20T00:15:23.719Z,80.50
2017-07-20T00:17:51.794Z,80.40
2017-07-20T00:20:19.881Z,81.20
2017-07-20T00:22:48.713Z,80.70
2017-07-20T00:25:16.852Z,80.50
2017-07-20T00:27:45.658Z,80.90
2017-07-20T00:30:13.731Z,80.60
2017-07-20T00:32:41.794Z,80.20
2017-07-20T00:35:10.619Z,80.60
2017-07-20T00:37:38.692Z,80.40
2017-07-20T00:40:06.751Z,81.00
2017-07-20T00:42:34.837Z,81.20
2017-07-20T00:45:03.836Z,80.70
2017-07-20T00:47:31.889Z,81.30
2017-07-20T00:49:59.956Z,81.40
2017-07-20T00:52:28.046Z,81.50
2017-07-20T00:54:56.119Z,81.90
2017-07-20T00:57:24.170Z,81.30
2017-07-20T00:59:52.295Z,81.20
2017-07-20T01:02:20.361Z,81.10
2017-07-20T01:04:48.426Z,81.50
2017-07-20T01:07:16.499Z,81.40
2017-07-20T01:09:44.594Z,81.60
2017-07-20T01:12:13.447Z,81.40
2017-07-20T01:14:41.537Z,81.40
2017-07-20T01:17:09.603Z,81.80
2017-07-20T01:19:37.652Z,83.00
2017-07-20T01:22:05.719Z,83.90
2017-07-20T01:24:33.793Z,84.40
2017-07-20T01:27:01.887Z,84.10
2017-07-20T01:29:29.910Z,83.90
2017-07-20T01:31:57.982Z,83.90
2017-07-20T01:34:26.047Z,83.50
2017-07-20T01:39:28.495Z,82.40
2017-07-20T01:41:56.552Z,82.00
2017-07-20T01:44:24.651Z,82.20
2017-07-20T01:46:52.719Z,82.00
2017-07-20T01:49:20.782Z,82.10
2017-07-20T01:51:48.853Z,81.90
2017-07-20T01:54:16.937Z,81.50
2017-07-20T01:56:45.022Z,81.40
2017-07-20T01:59:13.090Z,80.90
2017-07-20T02:01:41.143Z,81.50
2017-07-20T02:04:09.236Z,81.20
2017-07-20T02:06:37.294Z,81.20
2017-07-20T02:09:05.367Z,81.40
2017-07-20T02:11:33.446Z,81.40
2017-07-20T02:14:01.508Z,81.50
2017-07-20T02:16:29.595Z,81.40
2017-07-20T02:18:57.659Z,81.50
2017-07-20T02:21:25.723Z,81.40
2017-07-20T02:23:53.794Z,81.40
2017-07-20T02:26:21.878Z,81.30
2017-07-20T02:28:49.962Z,81.00
2017-07-20T02:31:18.046Z,81.40
2017-07-20T02:33:46.149Z,82.20
2017-07-20T02:36:14.219Z,82.60
2017-07-20T02:38:42.377Z,83.20
2017-07-20T02:41:11.170Z,83.70
2017-07-20T02:43:39.252Z,83.60
2017-07-20T02:46:07.326Z,84.30
2017-07-20T02:48:35.412Z,85.30
2017-07-20T02:51:03.474Z,86.60
2017-07-20T02:53:31.534Z,86.40
2017-07-20T02:55:59.619Z,86.00
2017-07-20T02:58:27.690Z,85.00
2017-07-20T03:00:55.758Z,85.50
2017-07-20T03:03:23.835Z,86.20
2017-07-20T03:05:51.920Z,86.30
2017-07-20T03:08:20.175Z,85.70
2017-07-20T03:10:48.247Z,86.00
2017-07-20T03:13:16.347Z,86.40
2017-07-20T03:15:44.424Z,86.60
2017-07-20T03:18:12.515Z,86.40
2017-07-20T03:20:41.356Z,87.10
2017-07-20T03:23:09.415Z,87.10
2017-07-20T03:25:37.497Z,88.00
2017-07-20T03:28:05.555Z,87.00
2017-07-20T03:30:33.627Z,88.20
2017-07-20T03:33:01.696Z,87.30
2017-07-20T03:35:29.770Z,87.40
2017-07-20T03:37:57.846Z,87.90
2017-07-20T03:40:25.911Z,87.40
2017-07-20T03:42:53.976Z,88.90
2017-07-20T03:45:22.050Z,88.70
2017-07-20T03:47:50.113Z,88.90
2017-07-20T03:50:18.196Z,89.70
2017-07-20T03:52:46.258Z,90.00
2017-07-20T03:55:14.316Z,90.00
2017-07-20T03:57:42.410Z,90.00
2017-07-20T04:00:10.477Z,90.00
2017-07-20T04:02:38.546Z,90.20
2017-07-20T04:05:06.625Z,89.90
2017-07-20T04:07:34.682Z,90.00
2017-07-20T04:10:02.954Z,90.10
2017-07-20T04:12:31.030Z,89.00
2017-07-20T04:14:59.102Z,89.20
2017-07-20T04:17:27.190Z,89.60
2017-07-20T04:19:55.254Z,89.50
2017-07-20T04:22:23.356Z,88.90
2017-07-20T04:24:51.421Z,88.80
2017-07-20T04:27:19.506Z,88.40
2017-07-20T04:29:48.335Z,87.30
2017-07-20T04:32:16.417Z,87.20
2017-07-20T04:34:44.499Z,87.30
2017-07-20T04:37:12.564Z,88.70
2017-07-20T04:39:40.642Z,89.50
2017-07-20T04:42:08.722Z,90.40
2017-07-20T04:44:36.787Z,91.00
2017-07-20T04:47:04.879Z,91.60
2017-07-20T04:49:32.967Z,92.10
2017-07-20T04:52:01.031Z,92.20
2017-07-20T04:54:29.106Z,92.00
2017-07-20T04:56:57.180Z,92.40
2017-07-20T04:59:25.255Z,92.40
2017-07-20T05:01:53.340Z,92.80
2017-07-20T05:04:22.207Z,93.50
2017-07-20T05:06:50.254Z,93.40
2017-07-20T05:09:18.350Z,93.70
2017-07-20T05:11:46.419Z,94.00
2017-07-20T05:14:14.490Z,94.30
2017-07-20T05:16:42.567Z,94.60
2017-07-20T05:19:10.635Z,94.90
2017-07-20T05:21:38.713Z,95.20
2017-07-20T05:24:06.788Z,95.10
2017-07-20T05:26:34.844Z,95.40
2017-07-20T05:29:03.226Z,95.80
2017-07-20T05:31:31.306Z,95.30
2017-07-20T05:33:59.399Z,95.30
2017-07-20T05:36:27.463Z,95.50
2017-07-20T05:38:55.539Z,95.40
2017-07-20T05:41:23.609Z,95.30
2017-07-20T05:43:51.686Z,95.20
2017-07-20T05:46:20.518Z,95.30
2017-07-20T05:48:48.586Z,95.60
2017-07-20T05:51:16.678Z,95.20
2017-07-20T05:53:45.061Z,95.20
2017-07-20T05:56:13.114Z,95.00
2017-07-20T05:58:41.174Z,95.40
2017-07-20T06:01:09.263Z,95.40
2017-07-20T06:03:37.417Z,95.60
2017-07-20T06:06:06.226Z,95.60
2017-07-20T06:08:34.297Z,95.60
2017-07-20T06:11:02.380Z,95.40
2017-07-20T06:13:30.474Z,95.80
2017-07-20T06:15:58.537Z,95.80
2017-07-20T06:18:26.611Z,96.30
2017-07-20T06:20:54.686Z,96.10
2017-07-20T06:23:22.755Z,96.10
2017-07-20T06:25:50.814Z,96.10
2017-07-20T06:28:19.096Z,95.50
2017-07-20T06:30:47.154Z,94.90
2017-07-20T06:33:15.230Z,94.30
2017-07-20T06:35:43.692Z,93.90
2017-07-20T06:38:12.519Z,93.60
2017-07-20T06:40:40.567Z,93.60
2017-07-20T06:43:08.628Z,93.70
2017-07-20T06:45:36.720Z,93.40
2017-07-20T06:48:04.810Z,92.80
2017-07-20T06:50:32.886Z,92.50
2017-07-20T06:53:01.743Z,92.70
2017-07-20T06:55:29.810Z,92.20
2017-07-20T06:57:57.900Z,91.60
2017-07-20T07:00:25.958Z,91.70
2017-07-20T07:02:54.031Z,91.70
2017-07-20T07:05:22.128Z,90.90
2017-07-20T07:07:50.171Z,90.60
2017-07-20T07:10:18.237Z,90.80
2017-07-20T07:12:46.298Z,90.10
2017-07-20T07:15:14.364Z,90.10
2017-07-20T07:17:42.429Z,89.80
2017-07-20T07:20:10.502Z,90.70
2017-07-20T07:22:38.578Z,90.90
2017-07-20T07:25:06.647Z,88.20
2017-07-20T07:27:34.695Z,88.40
2017-07-20T07:30:02.767Z,88.10
2017-07-20T07:32:31.590Z,88.60
2017-07-20T07:34:59.646Z,88.50
2017-07-20T07:37:28.466Z,89.20
2017-07-20T07:39:56.663Z,88.20
2017-07-20T07:42:24.714Z,86.90
2017-07-20T07:44:52.787Z,87.50
2017-07-20T07:47:20.863Z,87.80
2017-07-20T07:49:48.923Z,90.10
2017-07-20T07:52:17.005Z,89.10
2017-07-20T07:54:45.119Z,89.10
2017-07-20T07:57:13.171Z,87.30
2017-07-20T07:59:41.273Z,88.80
2017-07-20T08:02:10.094Z,89.80
2017-07-20T08:04:38.141Z,89.80
2017-07-20T08:07:06.987Z,87.50
2017-07-20T08:09:35.075Z,87.50
2017-07-20T08:12:03.143Z,89.40
2017-07-20T08:14:31.230Z,88.80
2017-07-20T08:17:00.083Z,89.00
2017-07-20T08:19:28.126Z,88.80
2017-07-20T08:21:56.199Z,88.80
2017-07-20T08:24:24.290Z,87.70
2017-07-20T08:26:52.369Z,87.70
2017-07-20T08:29:21.206Z,89.00
2017-07-20T08:31:50.040Z,87.10
2017-07-20T08:34:18.089Z,87.00
2017-07-20T08:36:46.199Z,86.00
2017-07-20T08:39:14.273Z,86.10
2017-07-20T08:41:42.317Z,85.20
2017-07-20T08:44:11.170Z,85.80
2017-07-20T08:46:39.238Z,85.70
2017-07-20T08:49:07.309Z,85.30
2017-07-20T08:51:35.360Z,85.20
2017-07-20T08:54:03.422Z,83.70
2017-07-20T08:56:31.507Z,85.90
2017-07-20T08:58:59.579Z,85.90
2017-07-20T09:01:27.634Z,87.40
2017-07-20T09:03:55.712Z,85.40
2017-07-20T09:06:23.839Z,85.30
2017-07-20T09:08:51.879Z,84.70
2017-07-20T09:11:19.927Z,84.90
2017-07-20T09:13:48.008Z,84.40
2017-07-20T09:16:16.063Z,84.60
2017-07-20T09:18:44.158Z,85.90
2017-07-20T09:21:12.220Z,84.90
2017-07-20T09:23:40.301Z,83.20
2017-07-20T09:26:08.382Z,84.20
2017-07-20T09:28:36.466Z,80.90
2017-07-20T09:31:04.538Z,77.90
2017-07-20T09:33:32.623Z,79.10
2017-07-20T09:36:01.503Z,76.50
2017-07-20T09:38:29.596Z,75.70
2017-07-20T09:40:57.658Z,75.60
2017-07-20T09:43:25.791Z,76.10
2017-07-20T09:45:53.851Z,77.00
2017-07-20T09:48:21.939Z,79.10
2017-07-20T09:50:50.774Z,76.00
2017-07-20T09:53:18.859Z,76.00
2017-07-20T09:55:46.918Z,75.50
2017-07-20T09:58:14.994Z,75.10
2017-07-20T10:00:43.102Z,74.10
2017-07-20T10:03:11.166Z,74.10
2017-07-20T10:05:39.245Z,73.10
2017-07-20T10:08:07.316Z,75.60
2017-07-20T10:10:35.391Z,76.30
2017-07-20T10:13:04.252Z,77.80
2017-07-20T10:15:32.323Z,77.60
2017-07-20T10:18:00.411Z,76.30
2017-07-20T10:20:28.475Z,75.70
2017-07-20T10:22:56.540Z,72.70
2017-07-20T10:25:24.622Z,73.30
2017-07-20T10:27:52.701Z,72.90
2017-07-20T10:30:20.777Z,73.80
2017-07-20T10:32:48.847Z,72.40
2017-07-20T10:35:16.944Z,71.40
2017-07-20T10:37:45.035Z,71.50
2017-07-20T10:40:13.109Z,71.90
2017-07-20T10:42:41.214Z,71.60
2017-07-20T10:45:09.269Z,72.50
2017-07-20T10:47:37.325Z,71.70
2017-07-20T10:50:05.420Z,72.10
2017-07-20T10:52:33.514Z,73.70
2017-07-20T10:55:01.571Z,72.90
2017-07-20T10:57:30.427Z,72.80
2017-07-20T10:59:58.496Z,73.10
2017-07-20T11:02:26.650Z,72.00
2017-07-20T11:04:55.030Z,71.60
2017-07-20T11:07:23.063Z,70.40
2017-07-20T11:09:52.045Z,70.90
2017-07-20T11:12:20.141Z,70.80
2017-07-20T11:14:48.972Z,71.80
2017-07-20T11:17:17.036Z,71.90
2017-07-20T11:19:45.135Z,72.30
2017-07-20T11:22:13.235Z,72.60
2017-07-20T11:24:42.103Z,69.60
2017-07-20T11:27:10.155Z,69.60
2017-07-20T11:29:38.244Z,65.70
2017-07-20T11:32:06.318Z,66.10
2017-07-20T11:34:34.369Z,64.70
2017-07-20T11:37:02.470Z,63.80
2017-07-20T11:39:30.525Z,63.80
2017-07-20T11:41:58.601Z,64.90
2017-07-20T11:44:26.707Z,66.00
2017-07-20T11:46:54.800Z,63.30
2017-07-20T11:49:22.858Z,61.40
2017-07-20T11:51:50.941Z,61.20
2017-07-20T11:54:19.035Z,60.80
2017-07-20T11:56:47.915Z,61.80
2017-07-20T11:59:16.013Z,62.20
2017-07-20T12:01:44.086Z,63.50
2017-07-20T12:04:12.140Z,63.20
2017-07-20T12:06:40.237Z,65.70
2017-07-20T12:09:08.283Z,68.50
2017-07-20T12:11:36.365Z,69.30
2017-07-20T12:14:04.422Z,70.80
2017-07-20T12:16:32.478Z,70.50
2017-07-20T12:19:00.559Z,71.90
2017-07-20T12:21:28.619Z,70.50
2017-07-20T12:23:56.698Z,66.40
2017-07-20T12:26:24.784Z,64.10
2017-07-20T12:28:52.843Z,65.20
2017-07-20T12:31:20.934Z,62.60
2017-07-20T12:33:49.006Z,64.70
2017-07-20T12:36:17.062Z,62.40
2017-07-20T12:38:45.135Z,61.90
2017-07-20T12:41:13.203Z,63.80
2017-07-20T12:43:41.274Z,64.10
2017-07-20T12:46:09.328Z,61.60
2017-07-20T12:48:39.026Z,64.40
2017-07-20T12:51:07.591Z,64.30
2017-07-20T12:53:35.641Z,62.30
2017-07-20T12:56:04.511Z,65.10
2017-07-20T12:58:32.570Z,64.20
2017-07-20T13:01:00.638Z,62.90
2017-07-20T13:03:28.687Z,62.20
2017-07-20T13:05:56.763Z,61.70
2017-07-20T13:08:24.831Z,57.50
2017-07-20T13:10:52.902Z,54.70
2017-07-20T13:13:20.983Z,55.50
2017-07-20T13:15:49.072Z,53.40
2017-07-20T13:18:17.155Z,52.40
2017-07-20T13:20:45.974Z,52.10
2017-07-20T13:23:14.041Z,52.10
2017-07-20T13:25:42.899Z,50.50
2017-07-20T13:28:10.954Z,50.40
2017-07-20T13:30:39.027Z,52.30
2017-07-20T13:33:07.109Z,50.20
2017-07-20T13:35:35.188Z,50.80
2017-07-20T13:38:04.025Z,51.60
2017-07-20T13:40:32.108Z,51.00
2017-07-20T13:43:00.190Z,50.20
2017-07-20T13:45:28.244Z,49.50
2017-07-20T13:47:56.327Z,49.70
2017-07-20T13:50:24.416Z,49.70
2017-07-20T13:52:52.487Z,49.10
2017-07-20T13:55:20.566Z,45.80
2017-07-20T13:57:49.362Z,45.40
2017-07-20T14:00:17.419Z,45.10
2017-07-20T14:02:45.491Z,45.00
2017-07-20T14:05:13.575Z,45.50
2017-07-20T14:07:41.652Z,46.10
2017-07-20T14:10:09.703Z,44.70
2017-07-20T14:12:37.755Z,44.10
2017-07-20T14:15:05.858Z,42.80
2017-07-20T14:17:33.907Z,43.30
2017-07-20T14:20:01.984Z,44.10
2017-07-20T14:22:30.050Z,43.50
2017-07-20T14:24:58.130Z,44.10
2017-07-20T14:27:26.205Z,43.10
2017-07-20T14:29:54.276Z,43.50
2017-07-20T14:32:22.331Z,44.50
2017-07-20T14:34:50.455Z,44.10
2017-07-20T14:37:18.487Z,43.80
2017-07-20T14:39:46.543Z,43.80
2017-07-20T14:42:14.634Z,44.00
2017-07-20T14:44:42.749Z,43.30
2017-07-20T14:47:10.794Z,44.00
2017-07-20T14:49:38.847Z,42.20
2017-07-20T14:52:06.937Z,41.90
2017-07-20T14:54:34.996Z,43.20
2017-07-20T14:57:03.050Z,42.60
2017-07-20T14:59:31.158Z,43.40
2017-07-20T15:01:59.271Z,43.40
2017-07-20T15:04:28.588Z,44.60
2017-07-20T15:06:56.648Z,44.60
2017-07-20T15:09:24.746Z,45.10
2017-07-20T15:11:52.806Z,45.50
2017-07-20T15:14:20.869Z,44.90
2017-07-20T15:16:48.952Z,44.50
2017-07-20T15:19:17.076Z,45.40
2017-07-20T15:21:45.131Z,44.40
2017-07-20T15:24:13.184Z,44.10
2017-07-20T15:26:41.274Z,44.60
2017-07-20T15:29:09.331Z,44.30
2017-07-20T15:31:37.388Z,44.60
2017-07-20T15:34:05.475Z,44.80
2017-07-20T15:36:33.539Z,45.60
2017-07-20T15:39:01.599Z,44.10
2017-07-20T15:41:29.681Z,45.00
2017-07-20T15:43:58.522Z,44.60
2017-07-20T15:46:26.598Z,44.60
2017-07-20T15:48:54.701Z,45.30
2017-07-20T15:51:22.762Z,45.00
2017-07-20T15:53:50.806Z,44.70
2017-07-20T15:56:18.887Z,44.70
2017-07-20T15:58:46.985Z,45.30
2017-07-20T16:01:15.058Z,45.90
2017-07-20T16:03:43.195Z,46.20
2017-07-20T16:06:11.303Z,46.40
2017-07-20T16:08:39.346Z,46.20
2017-07-20T16:11:07.442Z,46.50
2017-07-20T16:13:35.527Z,46.90
2017-07-20T16:16:04.359Z,46.10
2017-07-20T16:18:32.430Z,46.10
2017-07-20T16:21:00.498Z,46.60
2017-07-20T16:23:28.608Z,47.50
2017-07-20T16:25:56.678Z,44.90
2017-07-20T16:28:24.759Z,45.80
2017-07-20T16:30:52.848Z,45.80
2017-07-20T16:33:20.889Z,46.10
2017-07-20T16:35:48.949Z,47.10
2017-07-20T16:38:17.008Z,46.50
2017-07-20T16:40:45.080Z,46.80
2017-07-20T16:43:13.158Z,46.40
2017-07-20T16:45:41.220Z,46.50
2017-07-20T16:48:09.287Z,47.30
2017-07-20T16:50:37.351Z,47.70
2017-07-20T16:53:05.427Z,48.30
2017-07-20T16:55:33.498Z,47.70
2017-07-20T16:58:01.576Z,47.90
2017-07-20T17:00:29.650Z,48.10
2017-07-20T17:02:57.720Z,48.30
2017-07-20T17:05:25.800Z,48.90
2017-07-20T17:07:53.830Z,48.80
2017-07-20T17:10:22.646Z,49.80
2017-07-20T17:12:50.731Z,49.80
2017-07-20T17:15:18.811Z,49.80
2017-07-20T17:17:46.870Z,49.70
2017-07-20T17:20:14.924Z,49.10
2017-07-20T17:22:43.006Z,49.70
2017-07-20T17:25:11.062Z,49.20
2017-07-20T17:27:39.110Z,49.30
2017-07-20T17:30:07.954Z,50.50
2017-07-20T17:32:36.042Z,49.90
2017-07-20T17:35:04.107Z,49.70
2017-07-20T17:37:32.166Z,49.50
2017-07-20T17:40:00.237Z,49.70
2017-07-20T17:42:28.302Z,49.30
2017-07-20T17:44:56.379Z,49.90
2017-07-20T17:47:24.458Z,49.70
2017-07-20T17:49:52.532Z,49.80
2017-07-20T17:52:20.583Z,49.90
2017-07-20T17:54:48.670Z,50.20
2017-07-20T17:57:17.478Z,50.40
2017-07-20T17:59:45.547Z,50.40
2017-07-20T18:02:13.620Z,50.70
2017-07-20T18:04:41.683Z,50.10
2017-07-20T18:07:09.839Z,50.40
2017-07-20T18:09:37.928Z,51.10
2017-07-20T18:12:05.991Z,50.70
2017-07-20T18:14:34.062Z,50.40
2017-07-20T18:17:02.124Z,50.80
2017-07-20T18:19:30.226Z,50.70
2017-07-20T18:21:58.273Z,51.20
2017-07-20T18:24:26.338Z,51.50
2017-07-20T18:26:54.428Z,52.10
2017-07-20T18:29:22.501Z,52.20
2017-07-20T18:31:50.579Z,52.70
2017-07-20T18:34:18.645Z,52.90
2017-07-20T18:36:46.703Z,52.70
2017-07-20T18:39:14.786Z,53.40
2017-07-20T18:41:42.830Z,53.20
2017-07-20T18:44:10.889Z,53.40
2017-07-20T18:46:38.972Z,53.70
2017-07-20T18:49:07.047Z,53.80
2017-07-20T18:51:35.069Z,53.60
2017-07-20T18:54:03.912Z,54.10
2017-07-20T18:56:31.975Z,54.00
2017-07-20T18:59:00.093Z,54.50
2017-07-20T19:01:28.148Z,54.00
2017-07-20T19:03:56.203Z,54.40
2017-07-20T19:06:24.274Z,54.30
2017-07-20T19:08:52.355Z,54.30
2017-07-20T19:11:20.402Z,54.50
2017-07-20T19:13:48.463Z,53.70
2017-07-20T19:16:16.542Z,54.50
2017-07-20T19:18:44.615Z,54.90
2017-07-20T19:21:12.716Z,58.40
2017-07-20T19:23:40.897Z,67.50
2017-07-20T19:26:08.949Z,71.70
2017-07-20T19:28:37.031Z,73.80
2017-07-20T19:31:05.121Z,74.30
2017-07-20T19:33:33.173Z,75.80
2017-07-20T19:36:01.248Z,77.50
2017-07-20T19:38:29.340Z,77.60
2017-07-20T19:40:58.180Z,80.90
2017-07-20T19:43:26.287Z,80.80
2017-07-20T19:45:55.125Z,78.80
2017-07-20T19:48:23.203Z,78.90
2017-07-20T19:50:51.258Z,78.80
2017-07-20T19:53:19.335Z,78.60
2017-07-20T19:55:47.417Z,78.50
2017-07-20T19:58:15.483Z,76.50
2017-07-20T20:00:43.569Z,76.90
2017-07-20T20:03:11.815Z,77.30
2017-07-20T20:05:39.907Z,77.30
2017-07-20T20:08:07.966Z,76.60
2017-07-20T20:10:36.048Z,75.90
2017-07-20T20:13:04.118Z,75.50
2017-07-20T20:15:32.184Z,77.00
2017-07-20T20:18:00.338Z,76.00
2017-07-20T20:20:29.146Z,75.20
2017-07-20T20:22:57.230Z,75.10
2017-07-20T20:25:25.350Z,75.40
2017-07-20T20:27:54.178Z,74.50
2017-07-20T20:30:22.242Z,74.40
2017-07-20T20:32:50.408Z,71.60
2017-07-20T20:35:19.235Z,71.50
2017-07-20T20:37:47.336Z,71.30
2017-07-20T20:40:15.392Z,71.30
2017-07-20T20:42:43.474Z,71.70
2017-07-20T20:45:11.552Z,71.20
2017-07-20T20:47:39.607Z,71.60
2017-07-20T20:50:07.698Z,71.60
2017-07-20T20:52:35.766Z,70.70
2017-07-20T20:55:03.839Z,72.00
2017-07-20T20:57:31.920Z,70.20
2017-07-20T20:59:59.999Z,72.60
2017-07-20T21:02:28.086Z,71.20
2017-07-20T21:04:56.139Z,71.50
2017-07-20T21:07:24.211Z,71.40
2017-07-20T21:09:52.345Z,70.30
2017-07-20T21:12:21.168Z,70.20
2017-07-20T21:14:49.214Z,70.00
2017-07-20T21:17:17.295Z,70.20
2017-07-20T21:19:45.356Z,70.60
2017-07-20T21:22:13.419Z,69.40
2017-07-20T21:24:41.490Z,70.90
2017-07-20T21:27:09.583Z,69.90
2017-07-20T21:29:37.659Z,70.70
2017-07-20T21:32:05.733Z,71.40
2017-07-20T21:34:33.787Z,71.10
2017-07-20T21:37:01.843Z,70.60
2017-07-20T21:39:29.939Z,70.80
2017-07-20T21:41:57.986Z,70.80
2017-07-20T21:44:26.068Z,70.60
2017-07-20T21:46:54.132Z,71.00
2017-07-20T21:49:22.215Z,69.80
2017-07-20T21:51:50.278Z,69.30
2017-07-20T21:54:18.350Z,71.10
2017-07-20T21:56:46.392Z,70.10
2017-07-20T21:59:15.244Z,69.70
2017-07-20T22:01:43.324Z,69.70
2017-07-20T22:04:11.379Z,69.80
2017-07-20T22:06:39.472Z,69.60
2017-07-20T22:09:07.535Z,69.20
2017-07-20T22:11:35.587Z,69.70
2017-07-20T22:14:03.658Z,70.00
2017-07-20T22:16:32.530Z,70.30
2017-07-20T22:19:00.612Z,70.70
2017-07-20T22:21:28.704Z,71.20
2017-07-20T22:23:56.887Z,71.60
2017-07-20T22:26:24.947Z,72.10
2017-07-20T22:28:53.027Z,71.80
2017-07-20T22:31:21.083Z,70.90
2017-07-20T22:33:49.166Z,73.40
2017-07-20T22:36:17.237Z,72.30
2017-07-20T22:38:45.313Z,73.20
2017-07-20T22:41:13.380Z,73.50
2017-07-20T22:43:41.454Z,74.10
2017-07-20T22:46:09.531Z,74.90
2017-07-20T22:48:37.710Z,75.20
2017-07-20T22:51:05.770Z,74.60
2017-07-20T22:53:33.852Z,74.50
2017-07-20T22:56:01.914Z,74.70
2017-07-20T22:58:29.995Z,74.40
2017-07-20T23:00:58.067Z,74.60
2017-07-20T23:03:26.229Z,74.00
2017-07-20T23:05:55.037Z,73.60
2017-07-20T23:08:23.091Z,73.50
2017-07-20T23:10:51.157Z,73.50
2017-07-20T23:13:19.250Z,72.90
2017-07-20T23:15:47.303Z,73.30
2017-07-20T23:18:15.355Z,72.60
2017-07-20T23:20:43.434Z,72.90
2017-07-20T23:23:11.486Z,73.80
2017-07-20T23:25:40.324Z,73.80
2017-07-20T23:28:08.393Z,73.70
2017-07-20T23:30:36.544Z,74.50
2017-07-20T23:33:05.359Z,73.50
2017-07-20T23:35:33.424Z,73.40
2017-07-20T23:38:01.490Z,73.70
2017-07-20T23:40:29.547Z,74.00
2017-07-20T23:42:57.628Z,74.20
2017-07-20T23:45:25.675Z,73.40
2017-07-20T23:47:53.741Z,71.70
2017-07-20T23:50:21.823Z,72.90
2017-07-20T23:52:49.886Z,72.50
2017-07-20T23:55:17.946Z,71.80
2017-07-20T23:57:46.041Z,72.10
